sensor_id;sensor_type;location;lat;lon;timestamp;temperature;humidity
67182;DHT22;54114;53.524;49.396;2022-12-20T00:01:13;-7.30;81.20
67182;DHT22;54114;53.524;49.396;2022-12-20T00:03:41;-7.30;81.20
67182;DHT22;54114;53.524;49.396;2022-12-20T00:06:09;-7.20;81.10
67182;DHT22;54114;53.524;49.396;2022-12-20T00:08:37;-7.20;81.00
67182;DHT22;54114;53.524;49.396;2022-12-20T00:11:06;-7.10;80.90
67182;DHT22;54114;53.524;49.396;2022-12-20T00:13:34;-7.10;80.90
67182;DHT22;54114;53.524;49.396;2022-12-20T00:16:08;-7.10;81.00
67182;DHT22;54114;53.524;49.396;2022-12-20T00:18:41;-7.00;81.20
67182;DHT22;54114;53.524;49.396;2022-12-20T00:21:08;-6.90;81.40
67182;DHT22;54114;53.524;49.396;2022-12-20T00:23:36;-6.80;81.60
67182;DHT22;54114;53.524;49.396;2022-12-20T00:26:07;-6.70;81.70
67182;DHT22;54114;53.524;49.396;2022-12-20T00:28:38;-6.60;81.80
67182;DHT22;54114;53.524;49.396;2022-12-20T00:31:05;-6.60;81.70
67182;DHT22;54114;53.524;49.396;2022-12-20T00:33:32;-6.50;81.70
67182;DHT22;54114;53.524;49.396;2022-12-20T00:36:00;-6.40;81.70
67182;DHT22;54114;53.524;49.396;2022-12-20T00:38:26;-6.40;81.50
67182;DHT22;54114;53.524;49.396;2022-12-20T00:41:02;-6.30;81.50
67182;DHT22;54114;53.524;49.396;2022-12-20T00:43:31;-6.30;81.40
67182;DHT22;54114;53.524;49.396;2022-12-20T00:45:58;-6.30;81.50
67182;DHT22;54114;53.524;49.396;2022-12-20T00:48:28;-6.30;81.40
67182;DHT22;54114;53.524;49.396;2022-12-20T00:51:08;-6.20;81.50
67182;DHT22;54114;53.524;49.396;2022-12-20T00:53:36;-6.20;81.40
67182;DHT22;54114;53.524;49.396;2022-12-20T00:56:03;-6.20;81.50
67182;DHT22;54114;53.524;49.396;2022-12-20T00:58:34;-6.10;81.50
67182;DHT22;54114;53.524;49.396;2022-12-20T01:01:02;-6.20;81.30
67182;DHT22;54114;53.524;49.396;2022-12-20T01:03:29;-6.20;81.10
67182;DHT22;54114;53.524;49.396;2022-12-20T01:05:57;-6.20;81.20
67182;DHT22;54114;53.524;49.396;2022-12-20T01:08:28;-6.20;81.30
67182;DHT22;54114;53.524;49.396;2022-12-20T01:13:30;-6.20;81.40
67182;DHT22;54114;53.524;49.396;2022-12-20T01:16:06;-6.20;81.30
67182;DHT22;54114;53.524;49.396;2022-12-20T01:18:34;-6.20;81.20
67182;DHT22;54114;53.524;49.396;2022-12-20T01:21:07;-6.30;81.30
67182;DHT22;54114;53.524;49.396;2022-12-20T01:23:34;-6.30;81.50
67182;DHT22;54114;53.524;49.396;2022-12-20T01:26:02;-6.30;81.40
67182;DHT22;54114;53.524;49.396;2022-12-20T01:28:29;-6.40;81.20
67182;DHT22;54114;53.524;49.396;2022-12-20T01:30:59;-6.50;81.00
67182;DHT22;54114;53.524;49.396;2022-12-20T01:33:25;-6.50;81.10
67182;DHT22;54114;53.524;49.396;2022-12-20T01:35:59;-6.50;81.30
67182;DHT22;54114;53.524;49.396;2022-12-20T01:38:27;-6.50;81.50
67182;DHT22;54114;53.524;49.396;2022-12-20T01:40:54;-6.50;81.40
67182;DHT22;54114;53.524;49.396;2022-12-20T01:43:25;-6.60;81.20
67182;DHT22;54114;53.524;49.396;2022-12-20T01:46:14;-6.60;81.10
67182;DHT22;54114;53.524;49.396;2022-12-20T01:48:44;-6.60;80.90
67182;DHT22;54114;53.524;49.396;2022-12-20T01:51:17;-6.60;80.80
67182;DHT22;54114;53.524;49.396;2022-12-20T01:53:44;-6.60;80.70
67182;DHT22;54114;53.524;49.396;2022-12-20T01:56:12;-6.60;80.60
67182;DHT22;54114;53.524;49.396;2022-12-20T01:58:39;-6.70;80.50
67182;DHT22;54114;53.524;49.396;2022-12-20T02:01:05;-6.70;80.50
67182;DHT22;54114;53.524;49.396;2022-12-20T02:03:32;-6.70;80.60
67182;DHT22;54114;53.524;49.396;2022-12-20T02:06:06;-6.70;80.60
67182;DHT22;54114;53.524;49.396;2022-12-20T02:08:44;-6.80;80.60
67182;DHT22;54114;53.524;49.396;2022-12-20T02:16:32;-6.70;80.70
67182;DHT22;54114;53.524;49.396;2022-12-20T02:22:37;-6.70;80.70
67182;DHT22;54114;53.524;49.396;2022-12-20T02:25:08;-6.70;80.50
67182;DHT22;54114;53.524;49.396;2022-12-20T02:30:51;-6.70;80.30
67182;DHT22;54114;53.524;49.396;2022-12-20T02:33:22;-6.80;80.20
67182;DHT22;54114;53.524;49.396;2022-12-20T02:35:49;-6.80;80.20
67182;DHT22;54114;53.524;49.396;2022-12-20T02:38:49;-6.90;80.20
67182;DHT22;54114;53.524;49.396;2022-12-20T02:44:02;-7.00;80.00
67182;DHT22;54114;53.524;49.396;2022-12-20T02:46:52;-7.10;80.10
67182;DHT22;54114;53.524;49.396;2022-12-20T02:49:21;-7.20;80.20
67182;DHT22;54114;53.524;49.396;2022-12-20T02:51:54;-7.20;80.40
67182;DHT22;54114;53.524;49.396;2022-12-20T02:54:21;-7.30;80.40
67182;DHT22;54114;53.524;49.396;2022-12-20T02:56:49;-7.30;80.50
67182;DHT22;54114;53.524;49.396;2022-12-20T02:59:25;-7.30;80.40
67182;DHT22;54114;53.524;49.396;2022-12-20T03:01:55;-7.40;80.40
67182;DHT22;54114;53.524;49.396;2022-12-20T03:04:23;-7.50;80.40
67182;DHT22;54114;53.524;49.396;2022-12-20T03:06:54;-7.50;80.30
67182;DHT22;54114;53.524;49.396;2022-12-20T03:09:26;-7.60;80.20
67182;DHT22;54114;53.524;49.396;2022-12-20T03:11:53;-7.60;80.10
67182;DHT22;54114;53.524;49.396;2022-12-20T03:14:19;-7.70;80.20
67182;DHT22;54114;53.524;49.396;2022-12-20T03:16:46;-7.80;80.20
67182;DHT22;54114;53.524;49.396;2022-12-20T03:19:12;-7.80;80.20
67182;DHT22;54114;53.524;49.396;2022-12-20T03:21:44;-7.90;80.10
67182;DHT22;54114;53.524;49.396;2022-12-20T03:24:11;-7.90;80.10
67182;DHT22;54114;53.524;49.396;2022-12-20T03:26:38;-8.00;80.10
67182;DHT22;54114;53.524;49.396;2022-12-20T03:29:05;-8.00;80.30
67182;DHT22;54114;53.524;49.396;2022-12-20T03:31:36;-8.00;80.30
67182;DHT22;54114;53.524;49.396;2022-12-20T03:34:03;-8.10;80.30
67182;DHT22;54114;53.524;49.396;2022-12-20T03:36:29;-8.10;80.40
67182;DHT22;54114;53.524;49.396;2022-12-20T03:38:58;-8.10;80.50
67182;DHT22;54114;53.524;49.396;2022-12-20T03:41:25;-8.20;80.50
67182;DHT22;54114;53.524;49.396;2022-12-20T03:43:52;-8.20;80.40
67182;DHT22;54114;53.524;49.396;2022-12-20T03:46:20;-8.20;80.30
67182;DHT22;54114;53.524;49.396;2022-12-20T03:48:47;-8.30;80.30
67182;DHT22;54114;53.524;49.396;2022-12-20T03:51:15;-8.30;80.40
67182;DHT22;54114;53.524;49.396;2022-12-20T03:53:42;-8.30;80.40
67182;DHT22;54114;53.524;49.396;2022-12-20T03:56:08;-8.40;80.40
67182;DHT22;54114;53.524;49.396;2022-12-20T03:58:34;-8.40;80.30
67182;DHT22;54114;53.524;49.396;2022-12-20T04:01:01;-8.40;80.30
67182;DHT22;54114;53.524;49.396;2022-12-20T04:03:27;-8.50;80.20
67182;DHT22;54114;53.524;49.396;2022-12-20T04:05:56;-8.50;80.30
67182;DHT22;54114;53.524;49.396;2022-12-20T04:08:25;-8.50;80.30
67182;DHT22;54114;53.524;49.396;2022-12-20T04:10:51;-8.50;80.30
67182;DHT22;54114;53.524;49.396;2022-12-20T04:13:36;-8.60;80.30
67182;DHT22;54114;53.524;49.396;2022-12-20T04:16:03;-8.60;80.30
67182;DHT22;54114;53.524;49.396;2022-12-20T04:18:29;-8.60;80.40
67182;DHT22;54114;53.524;49.396;2022-12-20T04:21:02;-8.60;80.50
67182;DHT22;54114;53.524;49.396;2022-12-20T04:23:29;-8.60;80.40
67182;DHT22;54114;53.524;49.396;2022-12-20T04:25:55;-8.60;80.30
67182;DHT22;54114;53.524;49.396;2022-12-20T04:28:21;-8.60;80.30
67182;DHT22;54114;53.524;49.396;2022-12-20T04:30:48;-8.60;80.10
67182;DHT22;54114;53.524;49.396;2022-12-20T04:33:17;-8.60;80.10
67182;DHT22;54114;53.524;49.396;2022-12-20T04:35:43;-8.60;80.10
67182;DHT22;54114;53.524;49.396;2022-12-20T04:38:09;-8.60;80.10
67182;DHT22;54114;53.524;49.396;2022-12-20T04:40:36;-8.60;80.10
67182;DHT22;54114;53.524;49.396;2022-12-20T04:43:02;-8.60;80.20
67182;DHT22;54114;53.524;49.396;2022-12-20T04:45:28;-8.60;80.20
67182;DHT22;54114;53.524;49.396;2022-12-20T04:47:55;-8.60;80.20
67182;DHT22;54114;53.524;49.396;2022-12-20T04:50:21;-8.60;80.30
67182;DHT22;54114;53.524;49.396;2022-12-20T04:52:48;-8.60;80.30
67182;DHT22;54114;53.524;49.396;2022-12-20T04:55:36;-8.60;80.30
67182;DHT22;54114;53.524;49.396;2022-12-20T04:58:08;-8.50;80.30
67182;DHT22;54114;53.524;49.396;2022-12-20T05:00:35;-8.40;80.30
67182;DHT22;54114;53.524;49.396;2022-12-20T05:03:01;-8.30;80.30
67182;DHT22;54114;53.524;49.396;2022-12-20T05:05:28;-8.30;80.20
67182;DHT22;54114;53.524;49.396;2022-12-20T05:08:00;-8.20;80.10
67182;DHT22;54114;53.524;49.396;2022-12-20T05:10:26;-8.20;80.00
67182;DHT22;54114;53.524;49.396;2022-12-20T05:12:58;-8.10;80.00
67182;DHT22;54114;53.524;49.396;2022-12-20T05:15:24;-8.00;80.10
67182;DHT22;54114;53.524;49.396;2022-12-20T05:17:51;-8.00;80.10
67182;DHT22;54114;53.524;49.396;2022-12-20T05:20:17;-7.90;80.10
67182;DHT22;54114;53.524;49.396;2022-12-20T05:22:43;-7.80;80.10
67182;DHT22;54114;53.524;49.396;2022-12-20T05:25:28;-7.70;79.90
67182;DHT22;54114;53.524;49.396;2022-12-20T05:28:13;-7.70;79.80
67182;DHT22;54114;53.524;49.396;2022-12-20T05:30:40;-7.60;80.00
67182;DHT22;54114;53.524;49.396;2022-12-20T05:33:06;-7.50;80.00
67182;DHT22;54114;53.524;49.396;2022-12-20T05:35:32;-7.50;80.00
67182;DHT22;54114;53.524;49.396;2022-12-20T05:37:59;-7.50;79.90
67182;DHT22;54114;53.524;49.396;2022-12-20T05:40:27;-7.40;80.00
67182;DHT22;54114;53.524;49.396;2022-12-20T05:42:56;-7.30;80.10
67182;DHT22;54114;53.524;49.396;2022-12-20T05:45:23;-7.20;80.10
67182;DHT22;54114;53.524;49.396;2022-12-20T05:47:52;-7.20;79.90
67182;DHT22;54114;53.524;49.396;2022-12-20T05:50:18;-7.10;79.90
67182;DHT22;54114;53.524;49.396;2022-12-20T05:52:44;-7.00;80.00
67182;DHT22;54114;53.524;49.396;2022-12-20T05:55:11;-6.90;80.20
67182;DHT22;54114;53.524;49.396;2022-12-20T05:57:40;-6.80;80.10
67182;DHT22;54114;53.524;49.396;2022-12-20T06:00:07;-6.60;80.20
67182;DHT22;54114;53.524;49.396;2022-12-20T06:02:34;-6.50;80.30
67182;DHT22;54114;53.524;49.396;2022-12-20T06:05:02;-6.30;80.40
67182;DHT22;54114;53.524;49.396;2022-12-20T06:07:31;-6.10;81.00
67182;DHT22;54114;53.524;49.396;2022-12-20T06:09:57;-5.90;80.10
67182;DHT22;54114;53.524;49.396;2022-12-20T06:12:26;-5.70;79.90
67182;DHT22;54114;53.524;49.396;2022-12-20T06:14:53;-5.60;79.80
67182;DHT22;54114;53.524;49.396;2022-12-20T06:17:19;-5.50;79.70
67182;DHT22;54114;53.524;49.396;2022-12-20T06:19:49;-5.40;79.80
67182;DHT22;54114;53.524;49.396;2022-12-20T06:22:15;-5.20;79.90
67182;DHT22;54114;53.524;49.396;2022-12-20T06:24:42;-5.10;79.80
67182;DHT22;54114;53.524;49.396;2022-12-20T06:27:10;-5.00;79.80
67182;DHT22;54114;53.524;49.396;2022-12-20T06:29:37;-4.90;79.90
67182;DHT22;54114;53.524;49.396;2022-12-20T06:32:04;-4.80;80.00
67182;DHT22;54114;53.524;49.396;2022-12-20T06:34:33;-4.70;80.00
67182;DHT22;54114;53.524;49.396;2022-12-20T06:36:59;-4.60;79.80
67182;DHT22;54114;53.524;49.396;2022-12-20T06:39:25;-4.60;79.80
67182;DHT22;54114;53.524;49.396;2022-12-20T06:41:52;-4.40;79.70
67182;DHT22;54114;53.524;49.396;2022-12-20T06:44:18;-4.40;79.20
67182;DHT22;54114;53.524;49.396;2022-12-20T06:46:44;-4.40;79.00
67182;DHT22;54114;53.524;49.396;2022-12-20T06:49:13;-4.40;79.10
67182;DHT22;54114;53.524;49.396;2022-12-20T06:51:39;-4.30;79.20
67182;DHT22;54114;53.524;49.396;2022-12-20T06:54:06;-4.30;79.20
67182;DHT22;54114;53.524;49.396;2022-12-20T06:56:35;-4.20;79.30
67182;DHT22;54114;53.524;49.396;2022-12-20T06:59:04;-4.20;79.50
67182;DHT22;54114;53.524;49.396;2022-12-20T07:01:31;-4.00;79.60
67182;DHT22;54114;53.524;49.396;2022-12-20T07:04:02;-4.00;79.40
67182;DHT22;54114;53.524;49.396;2022-12-20T07:06:29;-4.00;79.40
67182;DHT22;54114;53.524;49.396;2022-12-20T07:08:55;-3.90;79.40
67182;DHT22;54114;53.524;49.396;2022-12-20T07:11:22;-3.90;79.20
67182;DHT22;54114;53.524;49.396;2022-12-20T07:13:48;-3.90;79.80
67182;DHT22;54114;53.524;49.396;2022-12-20T07:16:19;-3.90;78.90
67182;DHT22;54114;53.524;49.396;2022-12-20T07:18:51;-3.90;78.80
67182;DHT22;54114;53.524;49.396;2022-12-20T07:21:18;-3.90;79.00
67182;DHT22;54114;53.524;49.396;2022-12-20T07:23:47;-4.00;79.10
67182;DHT22;54114;53.524;49.396;2022-12-20T07:26:18;-3.90;79.30
67182;DHT22;54114;53.524;49.396;2022-12-20T07:28:45;-3.90;79.40
67182;DHT22;54114;53.524;49.396;2022-12-20T07:31:11;-3.80;79.80
67182;DHT22;54114;53.524;49.396;2022-12-20T07:33:40;-3.80;79.80
67182;DHT22;54114;53.524;49.396;2022-12-20T07:36:08;-3.70;80.00
67182;DHT22;54114;53.524;49.396;2022-12-20T07:38:36;-3.40;80.90
67182;DHT22;54114;53.524;49.396;2022-12-20T07:41:06;-3.20;80.30
67182;DHT22;54114;53.524;49.396;2022-12-20T07:43:34;-3.10;79.80
67182;DHT22;54114;53.524;49.396;2022-12-20T07:46:01;-3.00;79.90
67182;DHT22;54114;53.524;49.396;2022-12-20T07:48:28;-3.00;79.00
67182;DHT22;54114;53.524;49.396;2022-12-20T07:50:56;-2.90;79.00
67182;DHT22;54114;53.524;49.396;2022-12-20T07:53:28;-2.90;78.80
67182;DHT22;54114;53.524;49.396;2022-12-20T07:55:59;-2.90;78.50
67182;DHT22;54114;53.524;49.396;2022-12-20T07:58:28;-2.90;78.50
67182;DHT22;54114;53.524;49.396;2022-12-20T08:00:56;-2.90;77.90
67182;DHT22;54114;53.524;49.396;2022-12-20T08:03:24;-2.90;78.50
67182;DHT22;54114;53.524;49.396;2022-12-20T08:06:02;-2.80;79.50
67182;DHT22;54114;53.524;49.396;2022-12-20T08:08:31;-2.60;80.10
67182;DHT22;54114;53.524;49.396;2022-12-20T08:10:58;-2.20;80.70
67182;DHT22;54114;53.524;49.396;2022-12-20T08:13:27;-2.00;80.60
67182;DHT22;54114;53.524;49.396;2022-12-20T08:15:56;-1.80;79.90
67182;DHT22;54114;53.524;49.396;2022-12-20T08:18:22;-1.60;79.70
67182;DHT22;54114;53.524;49.396;2022-12-20T08:20:49;-1.50;79.00
67182;DHT22;54114;53.524;49.396;2022-12-20T08:23:17;-1.50;78.20
67182;DHT22;54114;53.524;49.396;2022-12-20T08:25:49;-1.50;77.80
67182;DHT22;54114;53.524;49.396;2022-12-20T08:28:18;-1.60;77.00
67182;DHT22;54114;53.524;49.396;2022-12-20T08:30:45;-1.60;76.50
67182;DHT22;54114;53.524;49.396;2022-12-20T08:33:11;-1.70;77.10
67182;DHT22;54114;53.524;49.396;2022-12-20T08:35:40;-1.80;77.10
67182;DHT22;54114;53.524;49.396;2022-12-20T08:38:07;-1.80;77.00
67182;DHT22;54114;53.524;49.396;2022-12-20T08:40:33;-1.90;76.90
67182;DHT22;54114;53.524;49.396;2022-12-20T08:43:00;-1.90;77.30
67182;DHT22;54114;53.524;49.396;2022-12-20T08:45:28;-1.90;77.30
67182;DHT22;54114;53.524;49.396;2022-12-20T08:47:55;-1.90;77.20
67182;DHT22;54114;53.524;49.396;2022-12-20T08:50:21;-1.90;77.40
67182;DHT22;54114;53.524;49.396;2022-12-20T08:52:48;-1.90;77.60
67182;DHT22;54114;53.524;49.396;2022-12-20T08:55:16;-2.00;77.00
67182;DHT22;54114;53.524;49.396;2022-12-20T08:57:48;-2.10;76.90
67182;DHT22;54114;53.524;49.396;2022-12-20T09:00:18;-2.10;76.90
67182;DHT22;54114;53.524;49.396;2022-12-20T09:02:44;-2.20;76.80
67182;DHT22;54114;53.524;49.396;2022-12-20T09:05:12;-2.30;76.50
67182;DHT22;54114;53.524;49.396;2022-12-20T09:07:39;-2.40;76.80
67182;DHT22;54114;53.524;49.396;2022-12-20T09:10:05;-2.40;77.20
67182;DHT22;54114;53.524;49.396;2022-12-20T09:12:35;-2.50;77.10
67182;DHT22;54114;53.524;49.396;2022-12-20T09:15:02;-2.50;76.90
67182;DHT22;54114;53.524;49.396;2022-12-20T09:17:29;-2.60;77.10
67182;DHT22;54114;53.524;49.396;2022-12-20T09:19:58;-2.60;77.10
67182;DHT22;54114;53.524;49.396;2022-12-20T09:22:27;-2.70;77.10
67182;DHT22;54114;53.524;49.396;2022-12-20T09:24:54;-2.80;77.00
67182;DHT22;54114;53.524;49.396;2022-12-20T09:27:21;-2.80;77.20
67182;DHT22;54114;53.524;49.396;2022-12-20T09:29:51;-2.90;77.40
67182;DHT22;54114;53.524;49.396;2022-12-20T09:32:20;-2.90;77.60
67182;DHT22;54114;53.524;49.396;2022-12-20T09:34:46;-3.00;78.20
67182;DHT22;54114;53.524;49.396;2022-12-20T09:37:13;-2.90;78.50
67182;DHT22;54114;53.524;49.396;2022-12-20T09:39:39;-2.90;78.70
67182;DHT22;54114;53.524;49.396;2022-12-20T09:42:06;-2.80;78.70
67182;DHT22;54114;53.524;49.396;2022-12-20T09:44:35;-2.80;78.50
67182;DHT22;54114;53.524;49.396;2022-12-20T09:47:05;-2.90;77.80
67182;DHT22;54114;53.524;49.396;2022-12-20T09:49:35;-2.90;78.00
67182;DHT22;54114;53.524;49.396;2022-12-20T10:00:14;-3.00;78.40
67182;DHT22;54114;53.524;49.396;2022-12-20T10:02:42;-3.00;78.10
67182;DHT22;54114;53.524;49.396;2022-12-20T10:05:12;-3.10;78.10
67182;DHT22;54114;53.524;49.396;2022-12-20T10:07:45;-3.10;78.30
67182;DHT22;54114;53.524;49.396;2022-12-20T10:10:30;-3.20;78.50
67182;DHT22;54114;53.524;49.396;2022-12-20T10:15:41;-3.10;79.50
67182;DHT22;54114;53.524;49.396;2022-12-20T10:18:17;-3.00;79.60
67182;DHT22;54114;53.524;49.396;2022-12-20T10:21:06;-3.00;79.30
67182;DHT22;54114;53.524;49.396;2022-12-20T10:23:49;-3.00;79.50
67182;DHT22;54114;53.524;49.396;2022-12-20T10:26:35;-3.00;79.00
67182;DHT22;54114;53.524;49.396;2022-12-20T10:29:04;-3.10;79.20
67182;DHT22;54114;53.524;49.396;2022-12-20T10:31:31;-3.10;79.70
67182;DHT22;54114;53.524;49.396;2022-12-20T10:33:57;-3.00;79.90
67182;DHT22;54114;53.524;49.396;2022-12-20T10:36:28;-3.00;79.50
67182;DHT22;54114;53.524;49.396;2022-12-20T10:38:57;-3.00;79.70
67182;DHT22;54114;53.524;49.396;2022-12-20T10:42:01;-3.10;79.60
67182;DHT22;54114;53.524;49.396;2022-12-20T10:44:25;-3.00;79.90
67182;DHT22;54114;53.524;49.396;2022-12-20T10:49:30;-3.20;79.20
67182;DHT22;54114;53.524;49.396;2022-12-20T10:51:59;-3.20;79.30
67182;DHT22;54114;53.524;49.396;2022-12-20T10:54:37;-3.30;79.70
67182;DHT22;54114;53.524;49.396;2022-12-20T10:57:21;-3.30;79.80
67182;DHT22;54114;53.524;49.396;2022-12-20T11:02:24;-3.30;79.90
67182;DHT22;54114;53.524;49.396;2022-12-20T11:07:32;-3.30;80.00
67182;DHT22;54114;53.524;49.396;2022-12-20T11:10:00;-3.30;80.30
67182;DHT22;54114;53.524;49.396;2022-12-20T11:12:54;-3.40;80.30
67182;DHT22;54114;53.524;49.396;2022-12-20T11:15:23;-3.40;80.30
67182;DHT22;54114;53.524;49.396;2022-12-20T11:17:59;-3.40;80.60
67182;DHT22;54114;53.524;49.396;2022-12-20T11:21:31;-3.40;80.50
67182;DHT22;54114;53.524;49.396;2022-12-20T11:24:13;-3.40;80.60
67182;DHT22;54114;53.524;49.396;2022-12-20T11:35:10;-3.30;81.00
67182;DHT22;54114;53.524;49.396;2022-12-20T11:37:46;-3.40;81.20
67182;DHT22;54114;53.524;49.396;2022-12-20T11:45:39;-3.30;81.60
67182;DHT22;54114;53.524;49.396;2022-12-20T11:51:01;-3.30;81.70
67182;DHT22;54114;53.524;49.396;2022-12-20T11:53:39;-3.30;81.80
67182;DHT22;54114;53.524;49.396;2022-12-20T11:56:37;-3.30;81.70
67182;DHT22;54114;53.524;49.396;2022-12-20T11:59:10;-3.30;81.80
67182;DHT22;54114;53.524;49.396;2022-12-20T12:01:39;-3.30;81.80
67182;DHT22;54114;53.524;49.396;2022-12-20T12:06:41;-3.30;82.00
67182;DHT22;54114;53.524;49.396;2022-12-20T12:09:54;-3.20;82.20
67182;DHT22;54114;53.524;49.396;2022-12-20T12:12:21;-3.20;82.10
67182;DHT22;54114;53.524;49.396;2022-12-20T12:20:34;-3.20;82.30
67182;DHT22;54114;53.524;49.396;2022-12-20T12:25:48;-3.20;82.60
67182;DHT22;54114;53.524;49.396;2022-12-20T12:28:14;-3.20;82.70
67182;DHT22;54114;53.524;49.396;2022-12-20T12:30:45;-3.20;82.70
67182;DHT22;54114;53.524;49.396;2022-12-20T12:33:15;-3.20;82.70
67182;DHT22;54114;53.524;49.396;2022-12-20T12:44:21;-3.20;83.00
67182;DHT22;54114;53.524;49.396;2022-12-20T12:47:04;-3.10;83.20
67182;DHT22;54114;53.524;49.396;2022-12-20T12:49:33;-3.10;83.30
67182;DHT22;54114;53.524;49.396;2022-12-20T12:52:00;-3.00;83.40
67182;DHT22;54114;53.524;49.396;2022-12-20T12:54:38;-3.00;83.30
67182;DHT22;54114;53.524;49.396;2022-12-20T12:57:09;-3.00;83.40
67182;DHT22;54114;53.524;49.396;2022-12-20T12:59:42;-3.00;83.30
67182;DHT22;54114;53.524;49.396;2022-12-20T13:04:53;-3.00;83.30
67182;DHT22;54114;53.524;49.396;2022-12-20T13:07:53;-3.00;83.20
67182;DHT22;54114;53.524;49.396;2022-12-20T13:17:49;-2.90;83.80
67182;DHT22;54114;53.524;49.396;2022-12-20T13:25:46;-2.80;83.90
67182;DHT22;54114;53.524;49.396;2022-12-20T13:33:47;-2.80;83.90
67182;DHT22;54114;53.524;49.396;2022-12-20T13:41:15;-2.70;84.00
67182;DHT22;54114;53.524;49.396;2022-12-20T13:43:46;-2.60;84.10
67182;DHT22;54114;53.524;49.396;2022-12-20T13:46:18;-2.60;84.10
67182;DHT22;54114;53.524;49.396;2022-12-20T13:48:54;-2.60;83.90
67182;DHT22;54114;53.524;49.396;2022-12-20T13:51:24;-2.60;84.00
67182;DHT22;54114;53.524;49.396;2022-12-20T13:53:55;-2.60;84.00
67182;DHT22;54114;53.524;49.396;2022-12-20T13:58:55;-2.60;84.10
67182;DHT22;54114;53.524;49.396;2022-12-20T14:01:24;-2.50;84.20
67182;DHT22;54114;53.524;49.396;2022-12-20T14:03:51;-2.60;84.20
67182;DHT22;54114;53.524;49.396;2022-12-20T14:06:23;-2.50;84.20
67182;DHT22;54114;53.524;49.396;2022-12-20T14:08:55;-2.50;84.40
67182;DHT22;54114;53.524;49.396;2022-12-20T14:11:23;-2.50;84.50
67182;DHT22;54114;53.524;49.396;2022-12-20T14:14:00;-2.50;84.30
67182;DHT22;54114;53.524;49.396;2022-12-20T14:16:29;-2.50;84.40
67182;DHT22;54114;53.524;49.396;2022-12-20T14:21:23;-2.40;84.80
67182;DHT22;54114;53.524;49.396;2022-12-20T14:23:50;-2.30;84.90
67182;DHT22;54114;53.524;49.396;2022-12-20T14:26:19;-2.30;84.70
67182;DHT22;54114;53.524;49.396;2022-12-20T14:28:50;-2.30;84.80
67182;DHT22;54114;53.524;49.396;2022-12-20T14:31:28;-2.20;85.40
67182;DHT22;54114;53.524;49.396;2022-12-20T14:34:21;-2.20;84.80
67182;DHT22;54114;53.524;49.396;2022-12-20T14:37:16;-2.10;84.90
67182;DHT22;54114;53.524;49.396;2022-12-20T14:40:36;-2.10;84.90
67182;DHT22;54114;53.524;49.396;2022-12-20T14:42:54;-2.10;84.80
67182;DHT22;54114;53.524;49.396;2022-12-20T14:45:23;-2.00;84.90
67182;DHT22;54114;53.524;49.396;2022-12-20T14:50:28;-2.00;84.90
67182;DHT22;54114;53.524;49.396;2022-12-20T14:52:59;-1.90;85.00
67182;DHT22;54114;53.524;49.396;2022-12-20T14:55:31;-1.90;84.90
67182;DHT22;54114;53.524;49.396;2022-12-20T14:58:00;-1.90;84.60
67182;DHT22;54114;53.524;49.396;2022-12-20T15:00:29;-1.90;84.60
67182;DHT22;54114;53.524;49.396;2022-12-20T15:03:15;-2.00;84.80
67182;DHT22;54114;53.524;49.396;2022-12-20T15:05:45;-2.00;85.00
67182;DHT22;54114;53.524;49.396;2022-12-20T15:13:36;-2.10;84.60
67182;DHT22;54114;53.524;49.396;2022-12-20T15:16:14;-2.10;84.80
67182;DHT22;54114;53.524;49.396;2022-12-20T15:18:47;-2.20;84.80
67182;DHT22;54114;53.524;49.396;2022-12-20T15:21:57;-2.20;84.80
67182;DHT22;54114;53.524;49.396;2022-12-20T15:24:11;-2.20;84.80
67182;DHT22;54114;53.524;49.396;2022-12-20T15:26:38;-2.20;84.80
67182;DHT22;54114;53.524;49.396;2022-12-20T15:29:05;-2.30;84.80
67182;DHT22;54114;53.524;49.396;2022-12-20T15:31:33;-2.30;84.80
67182;DHT22;54114;53.524;49.396;2022-12-20T15:34:03;-2.40;84.70
67182;DHT22;54114;53.524;49.396;2022-12-20T15:36:49;-2.40;84.70
67182;DHT22;54114;53.524;49.396;2022-12-20T15:39:15;-2.50;84.70
67182;DHT22;54114;53.524;49.396;2022-12-20T15:41:43;-2.50;84.90
67182;DHT22;54114;53.524;49.396;2022-12-20T15:44:17;-2.50;84.90
67182;DHT22;54114;53.524;49.396;2022-12-20T15:46:45;-2.60;84.90
67182;DHT22;54114;53.524;49.396;2022-12-20T15:49:16;-2.60;85.00
67182;DHT22;54114;53.524;49.396;2022-12-20T15:51:47;-2.60;85.00
67182;DHT22;54114;53.524;49.396;2022-12-20T15:54:19;-2.70;85.00
67182;DHT22;54114;53.524;49.396;2022-12-20T15:57:00;-2.70;85.20
67182;DHT22;54114;53.524;49.396;2022-12-20T15:59:28;-2.70;85.30
67182;DHT22;54114;53.524;49.396;2022-12-20T16:01:55;-2.60;85.40
67182;DHT22;54114;53.524;49.396;2022-12-20T16:04:21;-2.60;85.50
67182;DHT22;54114;53.524;49.396;2022-12-20T16:06:51;-2.60;85.50
67182;DHT22;54114;53.524;49.396;2022-12-20T16:09:18;-2.60;85.60
67182;DHT22;54114;53.524;49.396;2022-12-20T16:11:45;-2.60;85.60
67182;DHT22;54114;53.524;49.396;2022-12-20T16:14:15;-2.60;85.50
67182;DHT22;54114;53.524;49.396;2022-12-20T16:16:42;-2.60;85.50
67182;DHT22;54114;53.524;49.396;2022-12-20T16:19:10;-2.60;85.50
67182;DHT22;54114;53.524;49.396;2022-12-20T16:21:41;-2.60;85.60
67182;DHT22;54114;53.524;49.396;2022-12-20T16:24:15;-2.60;85.60
67182;DHT22;54114;53.524;49.396;2022-12-20T16:26:43;-2.50;85.70
67182;DHT22;54114;53.524;49.396;2022-12-20T16:29:10;-2.50;85.80
67182;DHT22;54114;53.524;49.396;2022-12-20T16:31:40;-2.50;85.80
67182;DHT22;54114;53.524;49.396;2022-12-20T16:34:16;-2.40;85.90
67182;DHT22;54114;53.524;49.396;2022-12-20T16:36:43;-2.40;86.00
67182;DHT22;54114;53.524;49.396;2022-12-20T16:39:09;-2.40;85.90
67182;DHT22;54114;53.524;49.396;2022-12-20T16:41:39;-2.30;85.90
67182;DHT22;54114;53.524;49.396;2022-12-20T16:44:09;-2.30;85.80
67182;DHT22;54114;53.524;49.396;2022-12-20T16:46:40;-2.30;85.80
67182;DHT22;54114;53.524;49.396;2022-12-20T16:49:10;-2.30;85.70
67182;DHT22;54114;53.524;49.396;2022-12-20T16:51:45;-2.30;85.60
67182;DHT22;54114;53.524;49.396;2022-12-20T16:54:15;-2.30;85.60
67182;DHT22;54114;53.524;49.396;2022-12-20T16:56:47;-2.30;85.60
67182;DHT22;54114;53.524;49.396;2022-12-20T16:59:24;-2.30;85.70
67182;DHT22;54114;53.524;49.396;2022-12-20T17:01:51;-2.30;85.90
67182;DHT22;54114;53.524;49.396;2022-12-20T17:04:19;-2.30;86.00
67182;DHT22;54114;53.524;49.396;2022-12-20T17:06:48;-2.30;86.10
67182;DHT22;54114;53.524;49.396;2022-12-20T17:09:15;-2.20;86.30
67182;DHT22;54114;53.524;49.396;2022-12-20T17:11:43;-2.20;86.20
67182;DHT22;54114;53.524;49.396;2022-12-20T17:14:10;-2.10;86.10
67182;DHT22;54114;53.524;49.396;2022-12-20T17:16:37;-2.10;86.20
67182;DHT22;54114;53.524;49.396;2022-12-20T17:19:04;-2.10;86.30
67182;DHT22;54114;53.524;49.396;2022-12-20T17:24:16;-2.00;86.30
67182;DHT22;54114;53.524;49.396;2022-12-20T17:26:44;-2.00;86.20
67182;DHT22;54114;53.524;49.396;2022-12-20T17:29:11;-1.90;86.30